Time;durP1;ratioP1;P1;durP2;ratioP2;P2;SDS_P1;SDS_P2;PMS_P1;PMS_P2;Temp;Humidity;BMP_temperature;BMP_pressure;BME280_temperature;BME280_humidity;BME280_pressure;Samples;Min_cycle;Max_cycle;Signal;HPM_P1;HPM_P2
2023/05/06 00:01:52;;;;;;;9.6;4.6;;;;;;;8.9;73.2;98910;;;;
2023/05/06 00:11:52;;;;;;;11;4.6;;;;;;;8.6;73.6;98920;;;;
2023/05/06 00:22:52;;;;;;;11;4.6;;;;;;;8.4;74.2;98920;;;;
2023/05/06 00:33:52;;;;;;;11;4.6;;;;;;;8.2;74.6;98910;;;;
2023/05/06 00:43:52;;;;;;;9.8;6.8;;;;;;;8.1;75.4;98890;;;;
2023/05/06 00:53:52;;;;;;;9.8;6.8;;;;;;;8;76.7;98880;;;;
2023/05/06 01:04:54;;;;;;;9.8;6.8;;;;;;;8;77.5;98890;;;;
2023/05/06 01:15:52;;;;;;;15.3;7.9;;;;;;;8.1;77.3;98880;;;;
2023/05/06 01:25:52;;;;;;;15.3;7.9;;;;;;;8.2;77.9;98890;;;;
2023/05/06 01:36:52;;;;;;;8.8;4.7;;;;;;;8.2;78.2;98890;;;;
2023/05/06 01:46:52;;;;;;;8.8;4.7;;;;;;;8.2;77.5;98890;;;;
2023/05/06 01:56:52;;;;;;;8.8;4.7;;;;;;;8;78.4;98890;;;;
2023/05/06 02:06:52;;;;;;;8.5;4.2;;;;;;;7.9;79.1;98880;;;;
2023/05/06 02:16:52;;;;;;;8.5;4.2;;;;;;;7.8;80.1;98880;;;;
2023/05/06 02:26:52;;;;;;;8.5;4.2;;;;;;;7.7;81.2;98880;;;;
2023/05/06 02:37:52;;;;;;;8.1;4.6;;;;;;;7.6;81.2;98860;;;;
2023/05/06 02:48:52;;;;;;;8.1;4.6;;;;;;;7.6;81.6;98850;;;;
2023/05/06 02:59:52;;;;;;;8.1;4.6;;;;;;;7.6;82.2;98850;;;;
2023/05/06 03:10:52;;;;;;;8.5;4.4;;;;;;;7.6;82;98850;;;;
2023/05/06 03:21:52;;;;;;;8.5;4.4;;;;;;;7.6;82.3;98850;;;;
2023/05/06 03:31:53;;;;;;;8.5;4.4;;;;;;;7.6;82.4;98840;;;;
2023/05/06 03:42:52;;;;;;;7.4;4.3;;;;;;;7.5;82.9;98850;;;;
2023/05/06 03:52:52;;;;;;;7.4;4.3;;;;;;;7.6;82.3;98870;;;;
2023/05/06 04:03:53;;;;;;;7.4;4.3;;;;;;;7.7;82.5;98860;;;;
2023/05/06 04:13:52;;;;;;;9.6;4.5;;;;;;;7.9;82.5;98870;;;;
2023/05/06 04:23:53;;;;;;;9.6;4.5;;;;;;;8.2;81.9;98870;;;;
2023/05/06 04:34:52;;;;;;;9.3;4.7;;;;;;;8.5;80.8;98880;;;;
2023/05/06 04:45:53;;;;;;;9.3;4.7;;;;;;;8.7;80.1;98880;;;;
2023/05/06 04:55:52;;;;;;;9.3;4.7;;;;;;;9;79.4;98870;;;;
2023/05/06 05:06:52;;;;;;;12.2;5.1;;;;;;;9.5;78.1;98870;;;;
2023/05/06 05:17:52;;;;;;;12.2;5.1;;;;;;;9.9;76.7;98870;;;;
2023/05/06 05:27:52;;;;;;;12.2;5.1;;;;;;;10.4;75.8;98860;;;;
2023/05/06 05:37:52;;;;;;;9.3;5.7;;;;;;;10.6;74.6;98840;;;;
2023/05/06 05:48:52;;;;;;;9.3;5.7;;;;;;;10.7;74.1;98860;;;;
2023/05/06 05:58:52;;;;;;;9.3;5.7;;;;;;;10.7;74.2;98850;;;;
2023/05/06 06:08:52;;;;;;;8;5;;;;;;;11.2;72.6;98840;;;;
2023/05/06 06:18:52;;;;;;;8;5;;;;;;;11.5;71.5;98830;;;;
2023/05/06 06:28:52;;;;;;;8;5;;;;;;;11.9;70;98830;;;;
2023/05/06 06:39:52;;;;;;;7.5;5.5;;;;;;;12.3;69.6;98820;;;;
2023/05/06 06:49:52;;;;;;;7.5;5.5;;;;;;;12.6;69.1;98820;;;;
2023/05/06 07:00:52;;;;;;;7.5;5.5;;;;;;;12.6;68.9;98820;;;;
2023/05/06 07:11:52;;;;;;;10.9;6;;;;;;;13;68;98810;;;;
2023/05/06 07:21:52;;;;;;;10.9;6;;;;;;;13.3;67.6;98790;;;;
2023/05/06 07:32:52;;;;;;;10.9;6;;;;;;;13.4;66.6;98790;;;;
2023/05/06 07:42:52;;;;;;;10.4;6.6;;;;;;;13.6;67.2;98780;;;;
2023/05/06 07:53:52;;;;;;;10.4;6.6;;;;;;;14.2;66.1;98770;;;;
2023/05/06 08:03:52;;;;;;;10.4;6.6;;;;;;;14.1;66;98760;;;;
2023/05/06 08:14:53;;;;;;;8.3;6;;;;;;;14.5;65.5;98740;;;;
2023/05/06 08:24:53;;;;;;;8.3;6;;;;;;;14.9;65.1;98740;;;;
2023/05/06 08:34:52;;;;;;;10.9;5.5;;;;;;;15.4;64.6;98730;;;;
2023/05/06 08:45:52;;;;;;;10.9;5.5;;;;;;;15.9;62.6;98740;;;;
2023/05/06 08:56:52;;;;;;;10.9;5.5;;;;;;;16.4;62.4;98730;;;;
2023/05/06 09:06:52;;;;;;;9.3;5.7;;;;;;;16.5;61.9;98720;;;;
2023/05/06 09:17:52;;;;;;;9.3;5.7;;;;;;;17.3;60.8;98700;;;;
2023/05/06 09:28:52;;;;;;;9.3;5.7;;;;;;;17.4;59.7;98670;;;;
2023/05/06 09:38:52;;;;;;;8.3;5.4;;;;;;;17.6;59.1;98640;;;;
2023/05/06 09:49:54;;;;;;;8.3;5.4;;;;;;;18.3;59.5;98630;;;;
2023/05/06 09:59:52;;;;;;;8.3;5.4;;;;;;;18.9;57.4;98600;;;;
2023/05/06 10:09:52;;;;;;;8.4;5;;;;;;;19.3;56.7;98590;;;;
2023/05/06 10:19:52;;;;;;;8.4;5;;;;;;;19.1;56.8;98580;;;;
2023/05/06 10:29:52;;;;;;;8.4;5;;;;;;;18.9;57.6;98580;;;;
2023/05/06 10:40:52;;;;;;;9.2;5.3;;;;;;;18.5;60.7;98570;;;;
2023/05/06 10:50:52;;;;;;;9.2;5.3;;;;;;;18.1;63.2;98570;;;;
2023/05/06 11:00:52;;;;;;;9.2;5.3;;;;;;;18;63.6;98620;;;;
2023/05/06 11:11:52;;;;;;;9.3;5.3;;;;;;;16.8;71.5;98650;;;;
2023/05/06 11:21:52;;;;;;;9.3;5.3;;;;;;;16.2;73.8;98660;;;;
2023/05/06 11:32:52;;;;;;;9.3;5.3;;;;;;;15.7;75.3;98660;;;;
2023/05/06 11:42:52;;;;;;;9.7;7.2;;;;;;;15.5;76.2;98660;;;;
2023/05/06 11:52:52;;;;;;;9.7;7.2;;;;;;;15.2;78.5;98690;;;;
2023/05/06 12:03:52;;;;;;;9.7;7.2;;;;;;;15.2;78.3;98680;;;;
2023/05/06 12:14:52;;;;;;;12.1;8.6;;;;;;;15;79.9;98670;;;;
2023/05/06 12:25:52;;;;;;;12.1;8.6;;;;;;;14.7;82.7;98640;;;;
2023/05/06 12:36:52;;;;;;;13.3;8.8;;;;;;;14.6;83.4;98640;;;;
2023/05/06 12:47:52;;;;;;;13.3;8.8;;;;;;;14.8;82.8;98640;;;;
2023/05/06 12:57:52;;;;;;;13.3;8.8;;;;;;;14.6;83.6;98630;;;;
2023/05/06 13:07:52;;;;;;;12.8;10.3;;;;;;;14.5;84.9;98620;;;;
2023/05/06 13:18:52;;;;;;;12.8;10.3;;;;;;;14.6;84.7;98630;;;;
2023/05/06 13:28:52;;;;;;;12.8;10.3;;;;;;;14.7;84.7;98610;;;;
2023/05/06 13:39:52;;;;;;;17.2;12.1;;;;;;;14.6;85.3;98630;;;;
2023/05/06 13:49:52;;;;;;;17.2;12.1;;;;;;;14.8;84.5;98610;;;;
2023/05/06 14:00:52;;;;;;;17.2;12.1;;;;;;;14.9;84.9;98620;;;;
2023/05/06 14:10:52;;;;;;;15.8;12.5;;;;;;;14.8;84.8;98630;;;;
2023/05/06 14:21:52;;;;;;;15.8;12.5;;;;;;;14.4;85.8;98620;;;;
2023/05/06 14:32:52;;;;;;;15.8;12.5;;;;;;;14.6;86.1;98610;;;;
2023/05/06 14:43:52;;;;;;;18;14.8;;;;;;;15.1;85.6;98610;;;;
2023/05/06 14:54:52;;;;;;;18;14.8;;;;;;;15.2;84.2;98610;;;;
2023/05/06 15:05:52;;;;;;;15.6;13.2;;;;;;;15.4;83.7;98620;;;;
2023/05/06 15:16:52;;;;;;;15.6;13.2;;;;;;;15.5;83.3;98620;;;;
2023/05/06 15:26:52;;;;;;;15.6;13.2;;;;;;;16;82.7;98620;;;;
2023/05/06 15:36:52;;;;;;;23.6;18;;;;;;;18.4;74.3;98620;;;;
2023/05/06 15:47:53;;;;;;;23.6;18;;;;;;;20.2;68.2;98610;;;;
2023/05/06 15:58:52;;;;;;;23.6;18;;;;;;;21.2;64.7;98610;;;;
2023/05/06 16:09:52;;;;;;;23.9;20.4;;;;;;;21.1;64.1;98610;;;;
2023/05/06 16:20:52;;;;;;;23.9;20.4;;;;;;;19.8;67;98600;;;;
2023/05/06 16:30:52;;;;;;;23.9;20.4;;;;;;;18.8;69.8;98600;;;;
2023/05/06 16:41:52;;;;;;;24.9;21.9;;;;;;;17.7;72.6;98600;;;;
2023/05/06 16:52:52;;;;;;;24.9;21.9;;;;;;;16.7;75.5;98610;;;;
2023/05/06 17:02:52;;;;;;;24.9;21.9;;;;;;;16.6;76.9;98610;;;;
2023/05/06 17:13:52;;;;;;;23.6;20.3;;;;;;;17.7;74.8;98610;;;;
2023/05/06 17:23:53;;;;;;;23.6;20.3;;;;;;;17.1;72.8;98620;;;;
2023/05/06 17:34:52;;;;;;;24.2;20.7;;;;;;;15.7;76.8;98620;;;;
2023/05/06 17:44:52;;;;;;;24.2;20.7;;;;;;;15;78.6;98630;;;;
2023/05/06 17:54:52;;;;;;;24.2;20.7;;;;;;;14.5;80.6;98640;;;;
2023/05/06 18:05:52;;;;;;;23.6;19.5;;;;;;;14.2;81.3;98650;;;;
2023/05/06 18:16:52;;;;;;;23.6;19.5;;;;;;;13.7;82.6;98660;;;;
2023/05/06 18:26:52;;;;;;;23.6;19.5;;;;;;;13.4;83.6;98660;;;;
2023/05/06 18:36:52;;;;;;;27;18.2;;;;;;;13.2;84;98680;;;;
2023/05/06 18:47:52;;;;;;;27;18.2;;;;;;;12.9;84.1;98690;;;;
2023/05/06 18:58:52;;;;;;;27;18.2;;;;;;;12.7;84.7;98690;;;;
2023/05/06 19:09:52;;;;;;;24;15.9;;;;;;;12.6;85.9;98700;;;;
2023/05/06 19:19:52;;;;;;;24;15.9;;;;;;;12.5;86.6;98720;;;;
2023/05/06 19:30:52;;;;;;;24;15.9;;;;;;;12.5;86.2;98720;;;;
2023/05/06 19:40:52;;;;;;;24.7;17.1;;;;;;;12.5;85.8;98730;;;;
2023/05/06 19:50:52;;;;;;;24.7;17.1;;;;;;;12.4;86;98730;;;;
2023/05/06 20:01:53;;;;;;;24.7;17.1;;;;;;;12.6;85.6;98740;;;;
2023/05/06 20:12:52;;;;;;;21.9;17.3;;;;;;;12.7;85;98740;;;;
2023/05/06 20:23:52;;;;;;;21.9;17.3;;;;;;;12.7;83.9;98740;;;;
2023/05/06 20:33:52;;;;;;;21.9;17.3;;;;;;;12.7;84;98740;;;;
2023/05/06 20:43:52;;;;;;;25.4;18.2;;;;;;;12.7;84.2;98750;;;;
2023/05/06 20:53:52;;;;;;;25.4;18.2;;;;;;;12.7;83.8;98750;;;;
2023/05/06 21:04:52;;;;;;;21.9;18.4;;;;;;;12.6;83.8;98750;;;;
2023/05/06 21:15:52;;;;;;;21.9;18.4;;;;;;;12.6;83.5;98760;;;;
2023/05/06 21:26:52;;;;;;;21.9;18.4;;;;;;;12.4;83.6;98760;;;;
2023/05/06 21:37:52;;;;;;;20.5;16.3;;;;;;;12.4;83.9;98770;;;;
2023/05/06 21:47:52;;;;;;;20.5;16.3;;;;;;;12.4;83.1;98780;;;;
2023/05/06 21:58:53;;;;;;;20.5;16.3;;;;;;;12.3;82.6;98780;;;;
2023/05/06 22:09:52;;;;;;;17.8;14.2;;;;;;;12.3;82;98790;;;;
2023/05/06 22:20:52;;;;;;;17.8;14.2;;;;;;;12.3;81.9;98790;;;;
2023/05/06 22:30:52;;;;;;;17.8;14.2;;;;;;;12.2;81.7;98790;;;;
2023/05/06 22:41:52;;;;;;;18.7;13;;;;;;;12.2;81.7;98790;;;;
2023/05/06 22:51:52;;;;;;;18.7;13;;;;;;;12.2;81.9;98790;;;;
2023/05/06 23:01:52;;;;;;;18.7;13;;;;;;;12.2;81.8;98780;;;;
2023/05/06 23:11:52;;;;;;;19;14.4;;;;;;;12.2;81.8;98790;;;;
2023/05/06 23:22:52;;;;;;;19;14.4;;;;;;;12.2;82.2;98790;;;;
2023/05/06 23:32:52;;;;;;;19;14.4;;;;;;;12.1;82.4;98790;;;;
2023/05/06 23:43:52;;;;;;;17.8;12.7;;;;;;;12.1;82.3;98800;;;;
2023/05/06 23:53:52;;;;;;;17.8;12.7;;;;;;;12.1;82.5;98780;;;;
